sensor_id;sensor_type;location;lat;lon;timestamp;temperature;humidity
43520;DHT22;46848;51.980;5.918;2023-01-25T00:02:01;3.30;79.00
43520;DHT22;46848;51.980;5.918;2023-01-25T00:04:27;3.40;78.70
43520;DHT22;46848;51.980;5.918;2023-01-25T00:06:52;3.30;78.80
43520;DHT22;46848;51.980;5.918;2023-01-25T00:09:19;3.40;79.10
43520;DHT22;46848;51.980;5.918;2023-01-25T00:11:45;3.30;78.70
43520;DHT22;46848;51.980;5.918;2023-01-25T00:14:11;3.30;78.80
43520;DHT22;46848;51.980;5.918;2023-01-25T00:16:37;3.30;78.80
43520;DHT22;46848;51.980;5.918;2023-01-25T00:19:04;3.30;79.00
43520;DHT22;46848;51.980;5.918;2023-01-25T00:21:30;3.40;79.00
43520;DHT22;46848;51.980;5.918;2023-01-25T00:23:56;3.40;78.90
43520;DHT22;46848;51.980;5.918;2023-01-25T00:26:22;3.50;78.90
43520;DHT22;46848;51.980;5.918;2023-01-25T00:28:54;3.40;79.00
43520;DHT22;46848;51.980;5.918;2023-01-25T00:31:45;3.50;79.00
43520;DHT22;46848;51.980;5.918;2023-01-25T00:36:56;3.30;78.30
43520;DHT22;46848;51.980;5.918;2023-01-25T00:39:24;3.30;78.20
43520;DHT22;46848;51.980;5.918;2023-01-25T00:41:50;3.30;78.70
43520;DHT22;46848;51.980;5.918;2023-01-25T00:44:16;3.30;78.80
43520;DHT22;46848;51.980;5.918;2023-01-25T00:46:41;3.30;78.60
43520;DHT22;46848;51.980;5.918;2023-01-25T00:49:25;3.40;78.70
43520;DHT22;46848;51.980;5.918;2023-01-25T00:51:53;3.30;78.50
43520;DHT22;46848;51.980;5.918;2023-01-25T00:54:20;3.30;78.20
43520;DHT22;46848;51.980;5.918;2023-01-25T00:56:46;3.30;78.00
43520;DHT22;46848;51.980;5.918;2023-01-25T00:59:12;3.20;78.60
43520;DHT22;46848;51.980;5.918;2023-01-25T01:01:40;3.20;78.70
43520;DHT22;46848;51.980;5.918;2023-01-25T01:04:06;3.20;78.30
43520;DHT22;46848;51.980;5.918;2023-01-25T01:06:35;3.20;78.60
43520;DHT22;46848;51.980;5.918;2023-01-25T01:09:01;3.20;78.70
43520;DHT22;46848;51.980;5.918;2023-01-25T01:11:27;3.20;78.80
43520;DHT22;46848;51.980;5.918;2023-01-25T01:13:57;3.20;78.80
43520;DHT22;46848;51.980;5.918;2023-01-25T01:16:23;3.20;78.80
43520;DHT22;46848;51.980;5.918;2023-01-25T01:18:49;3.20;78.70
43520;DHT22;46848;51.980;5.918;2023-01-25T01:21:15;3.30;78.70
43520;DHT22;46848;51.980;5.918;2023-01-25T01:23:42;3.30;78.60
43520;DHT22;46848;51.980;5.918;2023-01-25T01:26:11;3.30;78.60
43520;DHT22;46848;51.980;5.918;2023-01-25T01:28:37;3.30;78.60
43520;DHT22;46848;51.980;5.918;2023-01-25T01:31:10;3.30;78.60
43520;DHT22;46848;51.980;5.918;2023-01-25T01:33:35;3.30;78.70
43520;DHT22;46848;51.980;5.918;2023-01-25T01:36:12;3.30;78.50
43520;DHT22;46848;51.980;5.918;2023-01-25T01:38:38;3.30;78.70
43520;DHT22;46848;51.980;5.918;2023-01-25T01:41:04;3.30;78.70
43520;DHT22;46848;51.980;5.918;2023-01-25T01:43:30;3.20;78.60
43520;DHT22;46848;51.980;5.918;2023-01-25T01:46:00;3.20;78.60
43520;DHT22;46848;51.980;5.918;2023-01-25T01:48:53;3.20;77.90
43520;DHT22;46848;51.980;5.918;2023-01-25T01:51:24;3.20;78.50
43520;DHT22;46848;51.980;5.918;2023-01-25T01:53:56;3.10;78.60
43520;DHT22;46848;51.980;5.918;2023-01-25T01:56:33;3.10;78.30
43520;DHT22;46848;51.980;5.918;2023-01-25T01:59:01;3.00;78.20
43520;DHT22;46848;51.980;5.918;2023-01-25T02:01:29;3.00;78.50
43520;DHT22;46848;51.980;5.918;2023-01-25T02:03:55;3.00;78.80
43520;DHT22;46848;51.980;5.918;2023-01-25T02:09:03;3.00;78.90
43520;DHT22;46848;51.980;5.918;2023-01-25T02:11:30;3.10;78.90
43520;DHT22;46848;51.980;5.918;2023-01-25T02:13:57;3.10;78.90
43520;DHT22;46848;51.980;5.918;2023-01-25T02:16:26;3.10;78.80
43520;DHT22;46848;51.980;5.918;2023-01-25T02:18:54;3.10;78.80
43520;DHT22;46848;51.980;5.918;2023-01-25T02:21:22;3.10;78.90
43520;DHT22;46848;51.980;5.918;2023-01-25T02:24:19;3.20;78.90
43520;DHT22;46848;51.980;5.918;2023-01-25T02:26:48;3.20;78.30
43520;DHT22;46848;51.980;5.918;2023-01-25T02:29:14;3.20;78.60
43520;DHT22;46848;51.980;5.918;2023-01-25T02:31:43;3.10;78.30
43520;DHT22;46848;51.980;5.918;2023-01-25T02:34:10;3.10;78.80
43520;DHT22;46848;51.980;5.918;2023-01-25T02:36:35;3.00;78.40
43520;DHT22;46848;51.980;5.918;2023-01-25T02:39:21;2.90;78.70
43520;DHT22;46848;51.980;5.918;2023-01-25T02:41:50;3.00;78.90
43520;DHT22;46848;51.980;5.918;2023-01-25T02:44:17;3.00;78.80
43520;DHT22;46848;51.980;5.918;2023-01-25T02:46:43;3.00;78.70
43520;DHT22;46848;51.980;5.918;2023-01-25T02:49:10;3.00;78.90
43520;DHT22;46848;51.980;5.918;2023-01-25T02:51:39;3.00;78.90
43520;DHT22;46848;51.980;5.918;2023-01-25T02:54:06;3.00;78.80
43520;DHT22;46848;51.980;5.918;2023-01-25T02:56:32;3.00;78.70
43520;DHT22;46848;51.980;5.918;2023-01-25T02:58:58;3.10;78.80
43520;DHT22;46848;51.980;5.918;2023-01-25T03:01:24;3.10;78.60
43520;DHT22;46848;51.980;5.918;2023-01-25T03:03:50;3.00;78.70
43520;DHT22;46848;51.980;5.918;2023-01-25T03:06:15;3.00;78.90
43520;DHT22;46848;51.980;5.918;2023-01-25T03:08:41;3.00;78.50
43520;DHT22;46848;51.980;5.918;2023-01-25T03:11:07;2.90;78.50
43520;DHT22;46848;51.980;5.918;2023-01-25T03:13:34;2.90;78.90
43520;DHT22;46848;51.980;5.918;2023-01-25T03:16:06;2.90;78.90
43520;DHT22;46848;51.980;5.918;2023-01-25T03:18:32;3.00;79.00
43520;DHT22;46848;51.980;5.918;2023-01-25T03:21:06;2.90;78.40
43520;DHT22;46848;51.980;5.918;2023-01-25T03:23:33;2.90;78.80
43520;DHT22;46848;51.980;5.918;2023-01-25T03:26:17;2.90;78.80
43520;DHT22;46848;51.980;5.918;2023-01-25T03:28:43;3.00;78.80
43520;DHT22;46848;51.980;5.918;2023-01-25T03:31:12;2.90;78.80
43520;DHT22;46848;51.980;5.918;2023-01-25T03:33:39;2.80;78.20
43520;DHT22;46848;51.980;5.918;2023-01-25T03:36:05;2.80;78.80
43520;DHT22;46848;51.980;5.918;2023-01-25T03:38:31;2.80;79.00
43520;DHT22;46848;51.980;5.918;2023-01-25T03:40:57;2.80;78.80
43520;DHT22;46848;51.980;5.918;2023-01-25T03:43:23;2.80;79.00
43520;DHT22;46848;51.980;5.918;2023-01-25T03:45:53;2.70;78.30
43520;DHT22;46848;51.980;5.918;2023-01-25T03:48:19;2.60;78.20
43520;DHT22;46848;51.980;5.918;2023-01-25T03:50:56;2.50;78.90
43520;DHT22;46848;51.980;5.918;2023-01-25T03:53:27;2.60;79.30
43520;DHT22;46848;51.980;5.918;2023-01-25T03:56:05;2.60;79.20
43520;DHT22;46848;51.980;5.918;2023-01-25T03:58:33;2.70;79.20
43520;DHT22;46848;51.980;5.918;2023-01-25T04:01:00;2.60;78.70
43520;DHT22;46848;51.980;5.918;2023-01-25T04:03:27;2.60;78.90
43520;DHT22;46848;51.980;5.918;2023-01-25T04:05:54;2.60;79.10
43520;DHT22;46848;51.980;5.918;2023-01-25T04:08:21;2.60;79.00
43520;DHT22;46848;51.980;5.918;2023-01-25T04:10:55;2.70;79.10
43520;DHT22;46848;51.980;5.918;2023-01-25T04:13:22;2.70;79.00
43520;DHT22;46848;51.980;5.918;2023-01-25T04:15:48;2.80;79.00
43520;DHT22;46848;51.980;5.918;2023-01-25T04:18:14;2.80;78.90
43520;DHT22;46848;51.980;5.918;2023-01-25T04:20:40;2.80;78.80
43520;DHT22;46848;51.980;5.918;2023-01-25T04:23:07;2.90;78.80
43520;DHT22;46848;51.980;5.918;2023-01-25T04:25:33;2.80;78.80
43520;DHT22;46848;51.980;5.918;2023-01-25T04:27:59;2.80;78.90
43520;DHT22;46848;51.980;5.918;2023-01-25T04:30:25;2.80;78.90
43520;DHT22;46848;51.980;5.918;2023-01-25T04:32:51;2.80;78.90
43520;DHT22;46848;51.980;5.918;2023-01-25T04:35:16;2.90;79.00
43520;DHT22;46848;51.980;5.918;2023-01-25T04:37:42;2.80;78.90
43520;DHT22;46848;51.980;5.918;2023-01-25T04:40:08;2.90;78.90
43520;DHT22;46848;51.980;5.918;2023-01-25T04:42:34;2.90;78.80
43520;DHT22;46848;51.980;5.918;2023-01-25T04:45:00;2.90;78.70
43520;DHT22;46848;51.980;5.918;2023-01-25T04:47:26;3.00;78.80
43520;DHT22;46848;51.980;5.918;2023-01-25T04:49:51;3.00;78.80
43520;DHT22;46848;51.980;5.918;2023-01-25T04:52:17;3.00;79.30
43520;DHT22;46848;51.980;5.918;2023-01-25T04:54:43;3.00;78.20
43520;DHT22;46848;51.980;5.918;2023-01-25T04:57:08;2.90;78.50
43520;DHT22;46848;51.980;5.918;2023-01-25T04:59:34;2.80;78.00
43520;DHT22;46848;51.980;5.918;2023-01-25T05:02:00;2.70;78.30
43520;DHT22;46848;51.980;5.918;2023-01-25T05:04:25;2.80;78.80
43520;DHT22;46848;51.980;5.918;2023-01-25T05:06:51;2.70;78.80
43520;DHT22;46848;51.980;5.918;2023-01-25T05:09:16;2.70;78.50
43520;DHT22;46848;51.980;5.918;2023-01-25T05:11:42;2.60;78.90
43520;DHT22;46848;51.980;5.918;2023-01-25T05:14:08;2.60;78.90
43520;DHT22;46848;51.980;5.918;2023-01-25T05:16:33;2.60;79.20
43520;DHT22;46848;51.980;5.918;2023-01-25T05:18:59;2.60;79.20
43520;DHT22;46848;51.980;5.918;2023-01-25T05:21:25;2.60;79.20
43520;DHT22;46848;51.980;5.918;2023-01-25T05:24:09;2.60;79.20
43520;DHT22;46848;51.980;5.918;2023-01-25T05:26:34;2.60;79.20
43520;DHT22;46848;51.980;5.918;2023-01-25T05:29:19;2.60;79.10
43520;DHT22;46848;51.980;5.918;2023-01-25T05:31:44;2.50;78.90
43520;DHT22;46848;51.980;5.918;2023-01-25T05:34:10;2.40;78.80
43520;DHT22;46848;51.980;5.918;2023-01-25T05:36:35;2.40;79.10
43520;DHT22;46848;51.980;5.918;2023-01-25T05:39:03;2.50;79.30
43520;DHT22;46848;51.980;5.918;2023-01-25T05:41:29;2.50;79.30
43520;DHT22;46848;51.980;5.918;2023-01-25T05:43:55;2.50;79.20
43520;DHT22;46848;51.980;5.918;2023-01-25T05:46:20;2.60;79.20
43520;DHT22;46848;51.980;5.918;2023-01-25T05:48:47;2.60;79.20
43520;DHT22;46848;51.980;5.918;2023-01-25T05:51:12;2.60;79.10
43520;DHT22;46848;51.980;5.918;2023-01-25T05:53:38;2.60;78.70
43520;DHT22;46848;51.980;5.918;2023-01-25T05:56:08;2.60;79.00
43520;DHT22;46848;51.980;5.918;2023-01-25T05:58:35;2.60;79.20
43520;DHT22;46848;51.980;5.918;2023-01-25T06:01:02;2.60;79.10
43520;DHT22;46848;51.980;5.918;2023-01-25T06:03:28;2.70;79.20
43520;DHT22;46848;51.980;5.918;2023-01-25T06:05:58;2.70;79.10
43520;DHT22;46848;51.980;5.918;2023-01-25T06:08:27;2.70;79.10
43520;DHT22;46848;51.980;5.918;2023-01-25T06:10:52;2.70;79.10
43520;DHT22;46848;51.980;5.918;2023-01-25T06:13:18;2.80;79.10
43520;DHT22;46848;51.980;5.918;2023-01-25T06:15:52;2.80;79.10
43520;DHT22;46848;51.980;5.918;2023-01-25T06:18:18;2.70;79.10
43520;DHT22;46848;51.980;5.918;2023-01-25T06:20:43;2.80;79.10
43520;DHT22;46848;51.980;5.918;2023-01-25T06:23:09;2.70;79.00
43520;DHT22;46848;51.980;5.918;2023-01-25T06:25:34;2.80;79.20
43520;DHT22;46848;51.980;5.918;2023-01-25T06:28:00;2.80;79.20
43520;DHT22;46848;51.980;5.918;2023-01-25T06:30:26;2.80;79.20
43520;DHT22;46848;51.980;5.918;2023-01-25T06:32:51;2.80;79.20
43520;DHT22;46848;51.980;5.918;2023-01-25T06:35:17;2.70;79.10
43520;DHT22;46848;51.980;5.918;2023-01-25T06:37:43;2.90;79.10
43520;DHT22;46848;51.980;5.918;2023-01-25T06:40:09;2.90;79.10
43520;DHT22;46848;51.980;5.918;2023-01-25T06:42:35;2.90;79.00
43520;DHT22;46848;51.980;5.918;2023-01-25T06:45:01;2.80;78.80
43520;DHT22;46848;51.980;5.918;2023-01-25T06:47:26;2.80;78.80
43520;DHT22;46848;51.980;5.918;2023-01-25T06:49:52;2.80;79.00
43520;DHT22;46848;51.980;5.918;2023-01-25T06:52:18;2.80;78.90
43520;DHT22;46848;51.980;5.918;2023-01-25T06:54:43;2.70;78.60
43520;DHT22;46848;51.980;5.918;2023-01-25T06:57:09;2.70;78.90
43520;DHT22;46848;51.980;5.918;2023-01-25T06:59:36;2.70;79.10
43520;DHT22;46848;51.980;5.918;2023-01-25T07:02:02;2.70;79.10
43520;DHT22;46848;51.980;5.918;2023-01-25T07:04:27;2.70;79.20
43520;DHT22;46848;51.980;5.918;2023-01-25T07:06:53;2.70;79.00
43520;DHT22;46848;51.980;5.918;2023-01-25T07:09:19;2.60;78.20
43520;DHT22;46848;51.980;5.918;2023-01-25T07:11:49;2.50;78.90
43520;DHT22;46848;51.980;5.918;2023-01-25T07:14:15;2.40;79.10
43520;DHT22;46848;51.980;5.918;2023-01-25T07:16:40;2.40;79.10
43520;DHT22;46848;51.980;5.918;2023-01-25T07:19:08;2.30;79.20
43520;DHT22;46848;51.980;5.918;2023-01-25T07:21:34;2.40;79.50
43520;DHT22;46848;51.980;5.918;2023-01-25T07:24:02;2.40;79.50
43520;DHT22;46848;51.980;5.918;2023-01-25T07:26:28;2.40;79.40
43520;DHT22;46848;51.980;5.918;2023-01-25T07:28:56;2.50;79.40
43520;DHT22;46848;51.980;5.918;2023-01-25T07:31:22;2.50;79.30
43520;DHT22;46848;51.980;5.918;2023-01-25T07:33:50;2.50;79.20
43520;DHT22;46848;51.980;5.918;2023-01-25T07:36:16;2.40;78.50
43520;DHT22;46848;51.980;5.918;2023-01-25T07:38:42;2.30;79.00
43520;DHT22;46848;51.980;5.918;2023-01-25T07:41:08;2.30;79.40
43520;DHT22;46848;51.980;5.918;2023-01-25T07:43:34;2.30;79.70
43520;DHT22;46848;51.980;5.918;2023-01-25T07:46:07;2.30;79.50
43520;DHT22;46848;51.980;5.918;2023-01-25T07:48:37;2.30;79.50
43520;DHT22;46848;51.980;5.918;2023-01-25T07:51:05;2.30;79.60
43520;DHT22;46848;51.980;5.918;2023-01-25T07:53:38;2.40;79.60
43520;DHT22;46848;51.980;5.918;2023-01-25T07:56:05;2.50;79.50
43520;DHT22;46848;51.980;5.918;2023-01-25T07:58:30;2.50;79.30
43520;DHT22;46848;51.980;5.918;2023-01-25T08:00:56;2.60;79.30
43520;DHT22;46848;51.980;5.918;2023-01-25T08:03:22;2.60;79.20
43520;DHT22;46848;51.980;5.918;2023-01-25T08:05:48;2.70;79.10
43520;DHT22;46848;51.980;5.918;2023-01-25T08:08:14;2.70;79.00
43520;DHT22;46848;51.980;5.918;2023-01-25T08:10:39;2.70;78.90
43520;DHT22;46848;51.980;5.918;2023-01-25T08:13:05;2.70;78.90
43520;DHT22;46848;51.980;5.918;2023-01-25T08:15:31;2.80;79.00
43520;DHT22;46848;51.980;5.918;2023-01-25T08:18:00;2.80;79.10
43520;DHT22;46848;51.980;5.918;2023-01-25T08:20:26;2.80;78.90
43520;DHT22;46848;51.980;5.918;2023-01-25T08:22:51;2.80;78.90
43520;DHT22;46848;51.980;5.918;2023-01-25T08:25:17;2.90;79.00
43520;DHT22;46848;51.980;5.918;2023-01-25T08:27:43;2.90;79.00
43520;DHT22;46848;51.980;5.918;2023-01-25T08:30:10;2.90;78.80
43520;DHT22;46848;51.980;5.918;2023-01-25T08:32:37;3.00;78.70
43520;DHT22;46848;51.980;5.918;2023-01-25T08:35:03;3.00;78.70
43520;DHT22;46848;51.980;5.918;2023-01-25T08:37:29;3.00;78.60
43520;DHT22;46848;51.980;5.918;2023-01-25T08:39:55;3.00;78.50
43520;DHT22;46848;51.980;5.918;2023-01-25T08:42:24;3.00;78.50
43520;DHT22;46848;51.980;5.918;2023-01-25T08:44:50;3.00;78.50
43520;DHT22;46848;51.980;5.918;2023-01-25T08:47:16;3.00;78.50
43520;DHT22;46848;51.980;5.918;2023-01-25T08:49:42;3.00;78.40
43520;DHT22;46848;51.980;5.918;2023-01-25T08:52:08;2.90;78.40
43520;DHT22;46848;51.980;5.918;2023-01-25T08:54:34;2.80;78.40
43520;DHT22;46848;51.980;5.918;2023-01-25T08:57:00;2.80;78.50
43520;DHT22;46848;51.980;5.918;2023-01-25T08:59:26;2.70;78.60
43520;DHT22;46848;51.980;5.918;2023-01-25T09:01:51;2.70;79.00
43520;DHT22;46848;51.980;5.918;2023-01-25T09:04:17;2.70;79.10
43520;DHT22;46848;51.980;5.918;2023-01-25T09:06:43;2.70;79.10
43520;DHT22;46848;51.980;5.918;2023-01-25T09:09:10;2.70;78.90
43520;DHT22;46848;51.980;5.918;2023-01-25T09:11:36;2.70;78.80
43520;DHT22;46848;51.980;5.918;2023-01-25T09:14:03;2.70;79.10
43520;DHT22;46848;51.980;5.918;2023-01-25T09:16:28;2.70;78.90
43520;DHT22;46848;51.980;5.918;2023-01-25T09:19:00;2.60;79.20
43520;DHT22;46848;51.980;5.918;2023-01-25T09:21:26;2.70;79.00
43520;DHT22;46848;51.980;5.918;2023-01-25T09:23:53;2.60;79.10
43520;DHT22;46848;51.980;5.918;2023-01-25T09:26:19;2.70;79.30
43520;DHT22;46848;51.980;5.918;2023-01-25T09:28:50;2.70;79.20
43520;DHT22;46848;51.980;5.918;2023-01-25T09:31:17;2.70;79.20
43520;DHT22;46848;51.980;5.918;2023-01-25T09:33:43;2.60;79.10
43520;DHT22;46848;51.980;5.918;2023-01-25T09:36:09;2.70;79.30
43520;DHT22;46848;51.980;5.918;2023-01-25T09:38:35;2.70;79.30
43520;DHT22;46848;51.980;5.918;2023-01-25T09:46:47;2.70;79.20
43520;DHT22;46848;51.980;5.918;2023-01-25T09:54:54;2.70;79.00
43520;DHT22;46848;51.980;5.918;2023-01-25T09:59:51;2.70;79.10
43520;DHT22;46848;51.980;5.918;2023-01-25T10:04:58;2.80;79.10
43520;DHT22;46848;51.980;5.918;2023-01-25T10:07:28;2.80;79.10
43520;DHT22;46848;51.980;5.918;2023-01-25T10:09:59;2.80;79.20
43520;DHT22;46848;51.980;5.918;2023-01-25T10:12:27;2.80;79.10
43520;DHT22;46848;51.980;5.918;2023-01-25T10:14:56;2.80;79.10
43520;DHT22;46848;51.980;5.918;2023-01-25T10:30:58;2.50;79.40
43520;DHT22;46848;51.980;5.918;2023-01-25T10:33:25;2.50;79.40
43520;DHT22;46848;51.980;5.918;2023-01-25T10:35:54;2.50;79.50
43520;DHT22;46848;51.980;5.918;2023-01-25T10:38:34;2.50;79.70
43520;DHT22;46848;51.980;5.918;2023-01-25T10:41:15;2.50;79.70
43520;DHT22;46848;51.980;5.918;2023-01-25T10:43:42;2.50;79.70
43520;DHT22;46848;51.980;5.918;2023-01-25T10:46:26;2.50;79.80
43520;DHT22;46848;51.980;5.918;2023-01-25T10:48:52;2.50;79.80
43520;DHT22;46848;51.980;5.918;2023-01-25T10:51:30;2.50;79.70
43520;DHT22;46848;51.980;5.918;2023-01-25T10:54:04;2.50;79.80
43520;DHT22;46848;51.980;5.918;2023-01-25T10:56:33;2.50;79.90
43520;DHT22;46848;51.980;5.918;2023-01-25T10:59:23;2.50;79.80
43520;DHT22;46848;51.980;5.918;2023-01-25T11:01:50;2.60;79.70
43520;DHT22;46848;51.980;5.918;2023-01-25T11:06:48;2.60;79.80
43520;DHT22;46848;51.980;5.918;2023-01-25T11:14:25;2.60;79.80
43520;DHT22;46848;51.980;5.918;2023-01-25T11:16:51;2.50;79.00
43520;DHT22;46848;51.980;5.918;2023-01-25T11:19:38;2.50;79.60
43520;DHT22;46848;51.980;5.918;2023-01-25T11:24:43;2.50;79.70
43520;DHT22;46848;51.980;5.918;2023-01-25T11:27:22;2.40;79.70
43520;DHT22;46848;51.980;5.918;2023-01-25T11:30:16;2.50;79.80
43520;DHT22;46848;51.980;5.918;2023-01-25T11:32:45;2.50;79.90
43520;DHT22;46848;51.980;5.918;2023-01-25T11:35:20;2.60;80.00
43520;DHT22;46848;51.980;5.918;2023-01-25T11:38:18;2.60;80.00
43520;DHT22;46848;51.980;5.918;2023-01-25T11:41:03;2.60;79.80
43520;DHT22;46848;51.980;5.918;2023-01-25T11:54:47;2.80;79.30
43520;DHT22;46848;51.980;5.918;2023-01-25T12:03:17;2.80;79.50
43520;DHT22;46848;51.980;5.918;2023-01-25T12:11:19;2.80;79.50
43520;DHT22;46848;51.980;5.918;2023-01-25T12:14:10;2.80;79.30
43520;DHT22;46848;51.980;5.918;2023-01-25T12:16:47;2.70;79.40
43520;DHT22;46848;51.980;5.918;2023-01-25T12:20:05;2.70;79.60
43520;DHT22;46848;51.980;5.918;2023-01-25T12:32:43;2.60;80.40
43520;DHT22;46848;51.980;5.918;2023-01-25T12:35:27;2.60;79.70
43520;DHT22;46848;51.980;5.918;2023-01-25T12:37:59;2.70;79.90
43520;DHT22;46848;51.980;5.918;2023-01-25T12:40:50;2.70;79.90
43520;DHT22;46848;51.980;5.918;2023-01-25T12:43:27;2.70;79.80
43520;DHT22;46848;51.980;5.918;2023-01-25T12:45:54;2.70;79.70
43520;DHT22;46848;51.980;5.918;2023-01-25T12:48:27;2.70;79.90
43520;DHT22;46848;51.980;5.918;2023-01-25T12:50:58;2.80;79.90
43520;DHT22;46848;51.980;5.918;2023-01-25T12:53:37;2.80;79.80
43520;DHT22;46848;51.980;5.918;2023-01-25T12:56:06;2.80;79.70
43520;DHT22;46848;51.980;5.918;2023-01-25T12:58:59;2.80;79.70
43520;DHT22;46848;51.980;5.918;2023-01-25T13:01:37;2.80;79.70
43520;DHT22;46848;51.980;5.918;2023-01-25T13:09:44;2.80;79.60
43520;DHT22;46848;51.980;5.918;2023-01-25T13:12:16;2.90;79.60
43520;DHT22;46848;51.980;5.918;2023-01-25T13:14:41;2.80;79.50
43520;DHT22;46848;51.980;5.918;2023-01-25T13:17:29;2.90;79.60
43520;DHT22;46848;51.980;5.918;2023-01-25T13:23:38;2.90;80.10
43520;DHT22;46848;51.980;5.918;2023-01-25T13:28:51;3.00;79.50
43520;DHT22;46848;51.980;5.918;2023-01-25T13:34:12;3.00;79.40
43520;DHT22;46848;51.980;5.918;2023-01-25T13:42:03;3.00;79.00
43520;DHT22;46848;51.980;5.918;2023-01-25T13:44:32;3.00;79.00
43520;DHT22;46848;51.980;5.918;2023-01-25T13:47:01;2.90;79.10
43520;DHT22;46848;51.980;5.918;2023-01-25T13:49:35;2.90;79.30
43520;DHT22;46848;51.980;5.918;2023-01-25T13:52:03;2.90;79.50
43520;DHT22;46848;51.980;5.918;2023-01-25T13:54:29;2.90;79.40
43520;DHT22;46848;51.980;5.918;2023-01-25T13:57:06;2.80;79.50
43520;DHT22;46848;51.980;5.918;2023-01-25T13:59:35;2.80;79.60
43520;DHT22;46848;51.980;5.918;2023-01-25T14:02:00;2.80;79.60
43520;DHT22;46848;51.980;5.918;2023-01-25T14:04:28;2.80;79.60
43520;DHT22;46848;51.980;5.918;2023-01-25T14:06:59;2.80;79.80
43520;DHT22;46848;51.980;5.918;2023-01-25T14:09:34;2.80;79.80
43520;DHT22;46848;51.980;5.918;2023-01-25T14:12:01;2.80;79.90
43520;DHT22;46848;51.980;5.918;2023-01-25T14:14:32;2.80;79.80
43520;DHT22;46848;51.980;5.918;2023-01-25T14:19:39;2.90;79.60
43520;DHT22;46848;51.980;5.918;2023-01-25T14:22:30;2.80;79.30
43520;DHT22;46848;51.980;5.918;2023-01-25T14:25:03;2.80;79.50
43520;DHT22;46848;51.980;5.918;2023-01-25T14:27:29;2.80;79.70
43520;DHT22;46848;51.980;5.918;2023-01-25T14:29:55;2.70;79.70
43520;DHT22;46848;51.980;5.918;2023-01-25T14:32:23;2.70;79.70
43520;DHT22;46848;51.980;5.918;2023-01-25T14:34:49;2.70;79.80
43520;DHT22;46848;51.980;5.918;2023-01-25T14:37:16;2.70;79.80
43520;DHT22;46848;51.980;5.918;2023-01-25T14:39:43;2.70;79.80
43520;DHT22;46848;51.980;5.918;2023-01-25T14:42:10;2.70;79.90
43520;DHT22;46848;51.980;5.918;2023-01-25T14:44:36;2.80;79.90
43520;DHT22;46848;51.980;5.918;2023-01-25T14:49:49;2.80;79.90
43520;DHT22;46848;51.980;5.918;2023-01-25T14:52:19;2.80;79.80
43520;DHT22;46848;51.980;5.918;2023-01-25T14:54:58;2.70;79.80
43520;DHT22;46848;51.980;5.918;2023-01-25T14:57:38;2.70;79.90
43520;DHT22;46848;51.980;5.918;2023-01-25T15:02:37;2.60;79.90
43520;DHT22;46848;51.980;5.918;2023-01-25T15:05:19;2.60;80.00
43520;DHT22;46848;51.980;5.918;2023-01-25T15:07:48;2.60;80.00
43520;DHT22;46848;51.980;5.918;2023-01-25T15:10:24;2.50;80.10
43520;DHT22;46848;51.980;5.918;2023-01-25T15:15:33;2.50;80.40
43520;DHT22;46848;51.980;5.918;2023-01-25T15:17:59;2.50;80.40
43520;DHT22;46848;51.980;5.918;2023-01-25T15:20:34;2.40;80.40
43520;DHT22;46848;51.980;5.918;2023-01-25T15:25:55;2.50;80.40
43520;DHT22;46848;51.980;5.918;2023-01-25T15:28:23;2.50;80.40
43520;DHT22;46848;51.980;5.918;2023-01-25T15:30:50;2.50;80.10
43520;DHT22;46848;51.980;5.918;2023-01-25T15:33:19;2.50;80.20
43520;DHT22;46848;51.980;5.918;2023-01-25T15:35:45;2.50;80.30
43520;DHT22;46848;51.980;5.918;2023-01-25T15:38:12;2.50;80.20
43520;DHT22;46848;51.980;5.918;2023-01-25T15:40:38;2.60;80.20
43520;DHT22;46848;51.980;5.918;2023-01-25T15:43:04;2.60;80.10
43520;DHT22;46848;51.980;5.918;2023-01-25T15:45:29;2.50;80.00
43520;DHT22;46848;51.980;5.918;2023-01-25T15:47:57;2.50;80.00
43520;DHT22;46848;51.980;5.918;2023-01-25T15:50:23;2.40;80.10
43520;DHT22;46848;51.980;5.918;2023-01-25T15:52:49;2.30;80.20
43520;DHT22;46848;51.980;5.918;2023-01-25T15:55:15;2.40;80.20
43520;DHT22;46848;51.980;5.918;2023-01-25T15:57:42;2.30;80.30
43520;DHT22;46848;51.980;5.918;2023-01-25T16:00:19;2.30;80.50
43520;DHT22;46848;51.980;5.918;2023-01-25T16:02:47;2.20;80.50
43520;DHT22;46848;51.980;5.918;2023-01-25T16:05:13;2.20;80.60
43520;DHT22;46848;51.980;5.918;2023-01-25T16:07:41;2.20;80.50
43520;DHT22;46848;51.980;5.918;2023-01-25T16:10:18;2.20;80.60
43520;DHT22;46848;51.980;5.918;2023-01-25T16:12:44;2.20;80.70
43520;DHT22;46848;51.980;5.918;2023-01-25T16:15:10;2.20;80.60
43520;DHT22;46848;51.980;5.918;2023-01-25T16:17:35;2.20;80.40
43520;DHT22;46848;51.980;5.918;2023-01-25T16:20:01;2.20;80.70
43520;DHT22;46848;51.980;5.918;2023-01-25T16:22:27;2.20;80.70
43520;DHT22;46848;51.980;5.918;2023-01-25T16:24:53;2.20;80.70
43520;DHT22;46848;51.980;5.918;2023-01-25T16:27:19;2.20;80.80
43520;DHT22;46848;51.980;5.918;2023-01-25T16:29:50;2.20;80.80
43520;DHT22;46848;51.980;5.918;2023-01-25T16:32:16;2.20;80.80
43520;DHT22;46848;51.980;5.918;2023-01-25T16:34:41;2.20;80.90
43520;DHT22;46848;51.980;5.918;2023-01-25T16:37:16;2.10;80.80
43520;DHT22;46848;51.980;5.918;2023-01-25T16:39:41;2.20;80.80
43520;DHT22;46848;51.980;5.918;2023-01-25T16:42:10;2.30;80.90
43520;DHT22;46848;51.980;5.918;2023-01-25T16:44:36;2.30;80.80
43520;DHT22;46848;51.980;5.918;2023-01-25T16:47:03;2.30;80.70
43520;DHT22;46848;51.980;5.918;2023-01-25T16:49:29;2.40;80.80
43520;DHT22;46848;51.980;5.918;2023-01-25T16:51:56;2.40;80.70
43520;DHT22;46848;51.980;5.918;2023-01-25T16:54:24;2.40;80.60
43520;DHT22;46848;51.980;5.918;2023-01-25T16:56:50;2.40;80.50
43520;DHT22;46848;51.980;5.918;2023-01-25T16:59:17;2.40;80.50
43520;DHT22;46848;51.980;5.918;2023-01-25T17:01:44;2.40;80.50
43520;DHT22;46848;51.980;5.918;2023-01-25T17:04:10;2.40;80.40
43520;DHT22;46848;51.980;5.918;2023-01-25T17:06:39;2.40;80.40
43520;DHT22;46848;51.980;5.918;2023-01-25T17:09:09;2.40;80.50
43520;DHT22;46848;51.980;5.918;2023-01-25T17:11:36;2.30;80.40
43520;DHT22;46848;51.980;5.918;2023-01-25T17:14:03;2.30;80.50
43520;DHT22;46848;51.980;5.918;2023-01-25T17:16:30;2.30;80.50
43520;DHT22;46848;51.980;5.918;2023-01-25T17:19:15;2.30;80.50
43520;DHT22;46848;51.980;5.918;2023-01-25T17:21:41;2.40;80.40
43520;DHT22;46848;51.980;5.918;2023-01-25T17:24:07;2.30;80.40
43520;DHT22;46848;51.980;5.918;2023-01-25T17:26:33;2.30;80.30
43520;DHT22;46848;51.980;5.918;2023-01-25T17:29:00;2.30;80.40
43520;DHT22;46848;51.980;5.918;2023-01-25T17:31:31;2.30;80.50
43520;DHT22;46848;51.980;5.918;2023-01-25T17:34:01;2.30;80.50
43520;DHT22;46848;51.980;5.918;2023-01-25T17:36:27;2.30;80.50
43520;DHT22;46848;51.980;5.918;2023-01-25T17:38:53;2.30;80.50
43520;DHT22;46848;51.980;5.918;2023-01-25T17:41:19;2.30;80.40
43520;DHT22;46848;51.980;5.918;2023-01-25T17:43:49;2.30;80.40
43520;DHT22;46848;51.980;5.918;2023-01-25T17:46:21;2.20;80.40
43520;DHT22;46848;51.980;5.918;2023-01-25T17:48:47;2.20;80.50